createdAt,value
2018-12-22T00:00:49.152Z,80.17
2018-12-22T00:03:23.946Z,80.44
2018-12-22T00:05:58.783Z,80.58
2018-12-22T00:08:33.013Z,80.76
2018-12-22T00:11:09.038Z,80.86
2018-12-22T00:13:41.898Z,80.98
2018-12-22T00:16:14.873Z,81.09
2018-12-22T00:18:47.862Z,81.19
2018-12-22T00:21:24.292Z,81.35
2018-12-22T00:23:57.296Z,81.34
2018-12-22T00:26:30.661Z,81.44
2018-12-22T00:29:03.692Z,81.45
2018-12-22T00:31:36.596Z,81.46
2018-12-22T00:34:11.459Z,81.41
2018-12-22T00:36:47.366Z,81.45
2018-12-22T00:39:21.697Z,81.40
2018-12-22T00:41:56.781Z,81.54
2018-12-22T00:44:29.677Z,81.56
2018-12-22T00:47:02.732Z,81.82
2018-12-22T00:49:35.928Z,82.11
2018-12-22T00:52:08.911Z,82.28
2018-12-22T00:54:41.855Z,82.44
2018-12-22T00:57:15.913Z,82.52
2018-12-22T00:59:48.823Z,82.79
2018-12-22T01:02:21.874Z,83.35
2018-12-22T01:04:55.315Z,84.06
2018-12-22T01:07:31.405Z,84.61
2018-12-22T01:10:07.490Z,85.99
2018-12-22T01:12:42.529Z,87.46
2018-12-22T01:15:16.472Z,88.59
2018-12-22T01:17:51.205Z,89.58
2018-12-22T01:20:27.433Z,90.04
2018-12-22T01:23:01.345Z,90.13
2018-12-22T01:25:35.936Z,91.10
2018-12-22T01:28:09.339Z,91.22
2018-12-22T01:30:42.567Z,91.23
2018-12-22T01:33:15.835Z,91.81
2018-12-22T01:35:49.306Z,92.26
2018-12-22T01:38:22.339Z,93.27
2018-12-22T01:40:55.307Z,93.87
2018-12-22T01:43:29.686Z,94.08
2018-12-22T01:46:02.560Z,94.21
2018-12-22T01:48:35.492Z,94.11
2018-12-22T01:51:10.239Z,94.55
2018-12-22T01:53:43.233Z,94.76
2018-12-22T01:56:16.080Z,94.77
2018-12-22T01:58:49.504Z,95.10
2018-12-22T02:01:22.420Z,95.35
2018-12-22T02:03:56.323Z,95.51
2018-12-22T02:06:30.830Z,95.79
2018-12-22T02:09:06.901Z,95.80
2018-12-22T02:11:42.985Z,95.75
2018-12-22T02:14:16.704Z,95.54
2018-12-22T02:16:50.214Z,95.16
2018-12-22T02:19:23.213Z,94.62
2018-12-22T02:21:57.630Z,94.18
2018-12-22T02:24:30.558Z,93.59
2018-12-22T02:27:03.415Z,93.09
2018-12-22T02:29:36.836Z,93.24
2018-12-22T02:32:09.952Z,93.33
2018-12-22T02:34:42.974Z,92.49
2018-12-22T02:37:16.339Z,91.86
2018-12-22T02:39:49.299Z,91.39
2018-12-22T02:42:22.055Z,91.48
2018-12-22T02:44:55.497Z,90.93
2018-12-22T02:47:28.490Z,90.91
2018-12-22T02:50:01.501Z,90.71
2018-12-22T02:52:36.110Z,89.97
2018-12-22T02:55:09.136Z,89.77
2018-12-22T02:57:42.034Z,89.65
2018-12-22T03:00:19.196Z,89.02
2018-12-22T03:02:52.155Z,88.50
2018-12-22T03:05:25.458Z,88.49
2018-12-22T03:07:59.479Z,88.40
2018-12-22T03:10:32.429Z,88.19
2018-12-22T03:13:05.346Z,87.83
2018-12-22T03:15:39.799Z,87.78
2018-12-22T03:18:13.626Z,87.81
2018-12-22T03:20:46.704Z,87.76
2018-12-22T03:23:21.988Z,87.09
2018-12-22T03:25:55.278Z,86.93
2018-12-22T03:28:28.580Z,87.11
2018-12-22T03:31:02.157Z,87.15
2018-12-22T03:33:35.313Z,87.05
2018-12-22T03:36:08.225Z,87.05
2018-12-22T03:38:42.751Z,87.37
2018-12-22T03:41:15.661Z,88.01
2018-12-22T03:43:48.700Z,89.12
2018-12-22T03:46:22.035Z,90.77
2018-12-22T03:48:54.437Z,92.04
2018-12-22T03:51:27.389Z,92.45
2018-12-22T03:54:00.875Z,93.69
2018-12-22T03:56:33.789Z,94.67
2018-12-22T03:59:07.079Z,94.82
2018-12-22T04:01:41.387Z,95.26
2018-12-22T04:04:15.069Z,96.05
2018-12-22T04:06:48.263Z,96.30
2018-12-22T04:09:23.024Z,96.69
2018-12-22T04:11:55.973Z,96.74
2018-12-22T04:14:28.804Z,96.57
2018-12-22T04:17:02.156Z,96.47
2018-12-22T04:19:34.995Z,96.69
2018-12-22T04:22:07.916Z,96.88
2018-12-22T04:24:41.328Z,97.51
2018-12-22T04:27:14.346Z,97.57
2018-12-22T04:29:47.350Z,97.78
2018-12-22T04:32:21.132Z,98.03
2018-12-22T04:34:53.890Z,98.15
2018-12-22T04:37:26.683Z,98.25
2018-12-22T04:40:00.284Z,98.41
2018-12-22T04:42:33.330Z,98.45
2018-12-22T04:45:07.569Z,98.49
2018-12-22T04:47:41.315Z,98.40
2018-12-22T04:50:15.201Z,97.65
2018-12-22T04:52:48.182Z,97.31
2018-12-22T04:55:21.638Z,97.32
2018-12-22T04:57:54.826Z,97.29
2018-12-22T05:00:27.740Z,96.24
2018-12-22T05:03:01.069Z,94.96
2018-12-22T05:05:34.178Z,94.50
2018-12-22T05:08:07.074Z,93.95
2018-12-22T05:10:41.806Z,94.07
2018-12-22T05:13:14.981Z,94.33
2018-12-22T05:15:47.992Z,94.50
2018-12-22T05:18:21.497Z,94.60
2018-12-22T05:20:54.518Z,94.84
2018-12-22T05:23:27.751Z,95.00
2018-12-22T05:26:02.340Z,95.38
2018-12-22T05:28:35.287Z,95.31
2018-12-22T05:31:08.312Z,95.47
2018-12-22T05:33:42.904Z,95.47
2018-12-22T05:36:16.514Z,95.92
2018-12-22T05:38:50.448Z,96.42
2018-12-22T05:41:24.041Z,96.44
2018-12-22T05:43:57.124Z,96.53
2018-12-22T05:46:30.398Z,96.54
2018-12-22T05:49:03.962Z,96.72
2018-12-22T05:51:38.708Z,96.74
2018-12-22T05:54:11.738Z,96.43
2018-12-22T05:56:45.280Z,96.23
2018-12-22T05:59:18.321Z,95.88
2018-12-22T06:01:51.315Z,95.74
2018-12-22T06:04:24.880Z,96.12
2018-12-22T06:06:57.910Z,96.26
2018-12-22T06:09:36.700Z,96.44
2018-12-22T06:12:13.120Z,96.39
2018-12-22T06:14:45.987Z,96.56
2018-12-22T06:17:19.458Z,95.85
2018-12-22T06:19:52.726Z,95.34
2018-12-22T06:22:25.737Z,94.91
2018-12-22T06:24:58.818Z,94.77
2018-12-22T06:27:32.687Z,95.03
2018-12-22T06:30:09.360Z,95.46
2018-12-22T06:32:46.348Z,95.93
2018-12-22T06:35:19.418Z,95.70
2018-12-22T06:37:53.571Z,95.64
2018-12-22T06:40:27.663Z,95.28
2018-12-22T06:43:00.552Z,94.23
2018-12-22T06:45:35.232Z,93.33
2018-12-22T06:48:09.343Z,92.57
2018-12-22T06:50:42.226Z,92.37
2018-12-22T06:53:15.558Z,91.81
2018-12-22T06:55:49.358Z,91.31
2018-12-22T06:58:26.657Z,90.53
2018-12-22T07:00:59.856Z,90.18
2018-12-22T07:03:33.737Z,89.50
2018-12-22T07:06:06.943Z,88.89
2018-12-22T07:08:44.131Z,88.92
2018-12-22T07:11:18.345Z,88.22
2018-12-22T07:13:53.128Z,87.99
2018-12-22T07:16:26.595Z,88.11
2018-12-22T07:19:00.410Z,87.83
2018-12-22T07:21:34.462Z,87.35
2018-12-22T07:24:13.137Z,87.12
2018-12-22T07:26:58.572Z,87.05
2018-12-22T07:29:36.088Z,86.69
2018-12-22T07:32:09.358Z,86.77
2018-12-22T07:34:42.326Z,86.97
2018-12-22T07:37:15.251Z,86.90
2018-12-22T07:39:48.683Z,87.28
2018-12-22T07:42:21.745Z,87.22
2018-12-22T07:44:55.488Z,87.27
2018-12-22T07:47:30.275Z,87.14
2018-12-22T07:50:04.733Z,86.83
2018-12-22T07:52:39.410Z,86.70
2018-12-22T07:55:12.875Z,86.95
2018-12-22T07:57:47.424Z,86.97
2018-12-22T08:00:21.301Z,86.80
2018-12-22T08:02:55.942Z,87.01
2018-12-22T08:05:38.449Z,87.56
2018-12-22T08:08:13.068Z,88.10
2018-12-22T08:10:48.473Z,88.43
2018-12-22T08:13:21.435Z,88.65
2018-12-22T08:15:54.488Z,88.94
2018-12-22T08:18:27.839Z,88.87
2018-12-22T08:21:02.316Z,88.37
2018-12-22T08:23:36.862Z,87.64
2018-12-22T08:26:11.324Z,87.33
2018-12-22T08:28:44.291Z,86.74
2018-12-22T08:31:18.494Z,86.16
2018-12-22T08:33:54.205Z,85.78
2018-12-22T08:36:27.721Z,85.33
2018-12-22T08:39:02.355Z,85.24
2018-12-22T08:41:36.053Z,84.74
2018-12-22T08:44:09.148Z,85.07
2018-12-22T08:46:42.196Z,85.01
2018-12-22T08:49:15.870Z,84.49
2018-12-22T08:51:50.044Z,83.82
2018-12-22T08:54:25.702Z,84.19
2018-12-22T08:57:00.569Z,83.94
2018-12-22T08:59:34.320Z,83.98
2018-12-22T09:02:10.620Z,83.25
2018-12-22T09:04:46.763Z,83.09
2018-12-22T09:07:21.640Z,82.93
2018-12-22T09:09:59.964Z,83.20
2018-12-22T09:12:34.625Z,83.07
2018-12-22T09:15:10.753Z,82.77
2018-12-22T09:17:45.359Z,82.69
2018-12-22T09:20:20.337Z,83.01
2018-12-22T09:22:55.414Z,82.80
2018-12-22T09:25:28.322Z,82.42
2018-12-22T09:28:06.982Z,81.79
2018-12-22T09:30:41.002Z,82.15
2018-12-22T09:33:14.256Z,81.08
2018-12-22T09:35:47.751Z,81.00
2018-12-22T09:38:20.726Z,81.28
2018-12-22T09:40:53.896Z,81.31
2018-12-22T09:43:27.730Z,81.60
2018-12-22T09:46:05.971Z,81.39
2018-12-22T09:48:42.561Z,81.63
2018-12-22T09:51:21.382Z,81.80
2018-12-22T09:54:02.747Z,81.61
2018-12-22T09:56:39.746Z,81.75
2018-12-22T09:59:14.237Z,81.02
2018-12-22T10:01:47.245Z,81.47
2018-12-22T10:04:20.713Z,80.98
2018-12-22T10:06:56.921Z,80.98
2018-12-22T10:09:29.720Z,80.92
2018-12-22T10:12:04.857Z,81.28
2018-12-22T10:14:38.066Z,81.21
2018-12-22T10:17:11.249Z,81.69
2018-12-22T10:19:45.400Z,81.79
2018-12-22T10:22:18.416Z,82.17
2018-12-22T10:24:52.936Z,82.11
2018-12-22T10:27:31.488Z,82.36
2018-12-22T10:30:09.336Z,82.41
2018-12-22T10:32:46.536Z,82.20
2018-12-22T10:35:31.283Z,82.43
2018-12-22T10:38:05.345Z,82.52
2018-12-22T10:40:39.391Z,82.49
2018-12-22T10:43:14.066Z,82.45
2018-12-22T10:45:47.066Z,82.78
2018-12-22T10:48:20.017Z,82.71
2018-12-22T10:50:53.809Z,82.55
2018-12-22T10:53:28.910Z,82.83
2018-12-22T10:56:04.502Z,83.14
2018-12-22T10:58:37.586Z,83.46
2018-12-22T11:01:10.739Z,83.79
2018-12-22T11:03:43.924Z,83.94
2018-12-22T11:06:16.920Z,84.08
2018-12-22T11:08:50.375Z,84.40
2018-12-22T11:11:24.326Z,84.44
2018-12-22T11:13:58.060Z,84.84
2018-12-22T11:16:34.261Z,83.89
2018-12-22T11:19:08.611Z,83.82
2018-12-22T11:21:44.526Z,84.13
2018-12-22T11:24:18.876Z,83.54
2018-12-22T11:26:52.364Z,83.60
2018-12-22T11:29:26.702Z,83.97
2018-12-22T11:31:59.718Z,84.23
2018-12-22T11:34:32.790Z,84.10
2018-12-22T11:37:08.207Z,83.79
2018-12-22T11:39:41.152Z,84.01
2018-12-22T11:42:15.272Z,83.93
2018-12-22T11:44:48.757Z,84.21
2018-12-22T11:47:37.464Z,84.37
2018-12-22T11:50:21.851Z,84.23
2018-12-22T11:52:55.020Z,83.64
2018-12-22T11:55:29.236Z,83.08
2018-12-22T11:58:05.484Z,83.17
2018-12-22T12:00:42.114Z,83.28
2018-12-22T12:03:16.024Z,83.43
2018-12-22T12:05:52.759Z,83.59
2018-12-22T12:08:25.821Z,83.91
2018-12-22T12:11:00.501Z,82.85
2018-12-22T12:13:34.704Z,82.12
2018-12-22T12:16:30.469Z,82.33
2018-12-22T12:19:22.228Z,82.34
2018-12-22T12:21:56.023Z,82.74
2018-12-22T12:24:29.566Z,82.96
2018-12-22T12:27:05.245Z,82.95
2018-12-22T12:29:39.201Z,82.38
2018-12-22T12:32:12.189Z,82.39
2018-12-22T12:34:45.157Z,82.66
2018-12-22T12:37:20.389Z,82.88
2018-12-22T12:39:53.617Z,82.76
2018-12-22T12:42:27.421Z,80.52
2018-12-22T12:45:01.115Z,80.56
2018-12-22T12:47:37.994Z,79.33
2018-12-22T12:50:15.920Z,79.65
2018-12-22T12:52:50.617Z,79.47
2018-12-22T12:55:25.836Z,79.21
2018-12-22T12:57:59.958Z,79.61
2018-12-22T13:00:32.863Z,79.65
2018-12-22T13:03:08.383Z,79.44
2018-12-22T13:05:43.013Z,79.18
2018-12-22T13:08:27.318Z,78.92
2018-12-22T13:11:01.604Z,78.83
2018-12-22T13:13:49.538Z,78.65
2018-12-22T13:16:27.372Z,77.61
2018-12-22T13:19:00.463Z,77.67
2018-12-22T13:21:39.856Z,77.71
2018-12-22T13:24:13.749Z,77.75
2018-12-22T13:26:46.793Z,76.71
2018-12-22T13:29:21.225Z,76.13
2018-12-22T13:31:54.429Z,76.34
2018-12-22T13:34:27.598Z,76.38
2018-12-22T13:37:00.827Z,76.56
2018-12-22T13:39:34.675Z,77.24
2018-12-22T13:42:12.091Z,76.66
2018-12-22T13:44:47.501Z,77.30
2018-12-22T13:47:21.185Z,76.11
2018-12-22T13:49:55.778Z,76.30
2018-12-22T13:52:28.988Z,75.95
2018-12-22T13:55:02.115Z,75.12
2018-12-22T13:57:35.789Z,76.76
2018-12-22T14:00:15.594Z,78.46
2018-12-22T14:02:48.766Z,78.95
2018-12-22T14:05:23.973Z,79.61
2018-12-22T14:07:57.162Z,80.22
2018-12-22T14:10:37.511Z,81.34
2018-12-22T14:13:19.903Z,81.56
2018-12-22T14:16:10.510Z,81.56
2018-12-22T14:19:07.745Z,80.65
2018-12-22T14:21:41.801Z,81.28
2018-12-22T14:24:45.718Z,81.46
2018-12-22T14:27:19.597Z,82.00
2018-12-22T14:29:53.244Z,82.26
2018-12-22T14:32:27.079Z,82.61
2018-12-22T14:35:52.477Z,82.87
2018-12-22T14:38:26.854Z,83.25
2018-12-22T14:41:02.598Z,84.00
2018-12-22T14:43:36.951Z,84.49
2018-12-22T14:46:10.157Z,84.95
2018-12-22T14:48:44.471Z,85.53
2018-12-22T14:51:18.822Z,85.63
2018-12-22T14:53:51.895Z,85.68
2018-12-22T14:56:40.886Z,85.81
2018-12-22T14:59:18.461Z,86.06
2018-12-22T15:01:59.067Z,86.39
2018-12-22T15:04:33.968Z,86.74
2018-12-22T15:07:08.938Z,86.86
2018-12-22T15:09:43.995Z,87.02
2018-12-22T15:12:17.769Z,87.20
2018-12-22T15:14:52.861Z,87.30
2018-12-22T15:17:25.820Z,87.51
2018-12-22T15:19:58.781Z,87.71
2018-12-22T15:22:31.868Z,87.87
2018-12-22T15:25:06.658Z,88.37
2018-12-22T15:27:39.646Z,88.81
2018-12-22T15:30:18.835Z,89.07
2018-12-22T15:32:54.769Z,89.07
2018-12-22T15:35:28.689Z,88.75
2018-12-22T15:38:05.340Z,88.72
2018-12-22T15:40:39.772Z,88.31
2018-12-22T15:43:13.873Z,87.84
2018-12-22T15:45:47.609Z,87.17
2018-12-22T15:48:21.053Z,86.56
2018-12-22T15:50:54.320Z,86.19
2018-12-22T15:53:27.569Z,85.84
2018-12-22T15:56:01.321Z,85.45
2018-12-22T15:58:35.632Z,84.71
2018-12-22T16:01:09.231Z,84.41
2018-12-22T16:03:42.703Z,84.20
2018-12-22T16:06:16.393Z,83.00
2018-12-22T16:08:55.005Z,82.86
2018-12-22T16:11:29.445Z,82.88
2018-12-22T16:14:03.699Z,81.23
2018-12-22T16:16:38.596Z,81.41
2018-12-22T16:19:13.370Z,81.47
2018-12-22T16:21:46.437Z,81.47
2018-12-22T16:24:19.333Z,81.36
2018-12-22T16:26:54.718Z,80.50
2018-12-22T16:29:41.397Z,80.65
2018-12-22T16:32:23.633Z,80.89
2018-12-22T16:34:57.809Z,81.02
2018-12-22T16:37:31.823Z,81.25
2018-12-22T16:40:07.814Z,81.08
2018-12-22T16:42:41.850Z,81.11
2018-12-22T16:45:17.010Z,81.28
2018-12-22T16:47:54.416Z,81.52
2018-12-22T16:50:30.197Z,81.53
2018-12-22T16:53:05.689Z,81.75
2018-12-22T16:55:38.598Z,81.89
2018-12-22T16:58:36.650Z,81.94
2018-12-22T17:02:01.214Z,82.04
2018-12-22T17:04:35.605Z,82.00
2018-12-22T17:07:10.396Z,82.22
2018-12-22T17:09:45.856Z,82.39
2018-12-22T17:12:19.836Z,82.39
2018-12-22T17:14:55.923Z,82.52
2018-12-22T17:17:30.154Z,82.61
2018-12-22T17:20:04.874Z,82.56
2018-12-22T17:23:27.525Z,82.63
2018-12-22T17:26:07.934Z,82.60
2018-12-22T17:28:40.971Z,82.70
2018-12-22T17:31:17.471Z,82.79
2018-12-22T17:33:50.828Z,82.78
2018-12-22T17:36:26.106Z,82.76
2018-12-22T17:39:02.460Z,82.79
2018-12-22T17:41:35.546Z,82.74
2018-12-22T17:44:08.724Z,82.67
2018-12-22T17:46:44.140Z,82.66
2018-12-22T17:49:20.082Z,82.91
2018-12-22T17:51:54.154Z,83.13
2018-12-22T17:54:29.691Z,83.02
2018-12-22T17:57:04.390Z,82.99
2018-12-22T17:59:38.123Z,83.19
2018-12-22T18:02:12.113Z,83.24
2018-12-22T18:04:53.747Z,83.52
2018-12-22T18:07:39.334Z,83.89
2018-12-22T18:10:13.056Z,83.94
2018-12-22T18:12:46.624Z,84.46
2018-12-22T18:15:23.677Z,84.38
2018-12-22T18:17:58.800Z,84.48
2018-12-22T18:20:32.253Z,85.02
2018-12-22T18:23:05.927Z,85.17
2018-12-22T18:25:38.883Z,85.75
2018-12-22T18:28:12.065Z,86.11
2018-12-22T18:30:54.705Z,86.61
2018-12-22T18:33:35.947Z,86.57
2018-12-22T18:36:09.348Z,86.69
2018-12-22T18:38:43.761Z,86.81
2018-12-22T18:41:23.214Z,86.62
2018-12-22T18:43:57.340Z,86.22
2018-12-22T18:46:33.355Z,86.37
2018-12-22T18:49:07.670Z,86.32
2018-12-22T18:51:40.976Z,86.37
2018-12-22T18:54:14.789Z,86.45
2018-12-22T18:57:01.241Z,86.89
2018-12-22T18:59:37.523Z,87.22
2018-12-22T19:02:15.438Z,87.23
2018-12-22T19:04:48.624Z,87.44
2018-12-22T19:07:24.512Z,87.96
2018-12-22T19:09:59.876Z,88.17
2018-12-22T19:12:34.767Z,88.39
2018-12-22T19:15:10.459Z,88.43
2018-12-22T19:17:45.376Z,88.51
2018-12-22T19:20:34.306Z,88.36
2018-12-22T19:23:09.311Z,88.59
2018-12-22T19:25:48.028Z,88.86
2018-12-22T19:28:22.255Z,88.89
2018-12-22T19:30:59.904Z,88.60
2018-12-22T19:33:40.171Z,88.52
2018-12-22T19:36:15.400Z,88.56
2018-12-22T19:38:50.325Z,88.92
2018-12-22T19:41:25.783Z,88.87
2018-12-22T19:44:00.360Z,89.02
2018-12-22T19:46:34.140Z,89.24
2018-12-22T19:49:08.913Z,89.36
2018-12-22T19:51:43.567Z,89.48
2018-12-22T19:54:17.956Z,89.60
2018-12-22T19:56:54.146Z,89.90
2018-12-22T19:59:28.009Z,89.90
2018-12-22T20:02:08.521Z,89.87
2018-12-22T20:04:42.543Z,89.80
2018-12-22T20:07:18.692Z,89.72
2018-12-22T20:09:53.852Z,89.97
2018-12-22T20:12:29.593Z,90.08
2018-12-22T20:15:05.159Z,90.02
2018-12-22T20:17:40.397Z,90.07
2018-12-22T20:20:14.435Z,90.12
2018-12-22T20:22:47.668Z,90.27
2018-12-22T20:25:22.500Z,90.49
2018-12-22T20:27:57.203Z,90.47
2018-12-22T20:30:33.550Z,90.42
2018-12-22T20:33:07.967Z,90.33
2018-12-22T20:35:42.042Z,90.28
2018-12-22T20:38:15.634Z,90.38
2018-12-22T20:40:49.436Z,90.49
2018-12-22T20:43:24.852Z,90.42
2018-12-22T20:45:59.273Z,90.31
2018-12-22T20:48:34.744Z,90.31
2018-12-22T20:51:12.361Z,90.36
2018-12-22T20:53:46.288Z,90.25
2018-12-22T20:56:21.484Z,90.16
2018-12-22T20:58:58.470Z,90.10
2018-12-22T21:01:36.177Z,90.10
2018-12-22T21:04:09.791Z,90.07
2018-12-22T21:06:43.958Z,90.02
2018-12-22T21:09:21.676Z,90.17
2018-12-22T21:11:59.694Z,90.31
2018-12-22T21:14:44.492Z,90.73
2018-12-22T21:17:19.603Z,91.03
2018-12-22T21:19:57.955Z,91.19
2018-12-22T21:22:36.212Z,91.42
2018-12-22T21:25:09.235Z,91.47
2018-12-22T21:27:49.001Z,91.46
2018-12-22T21:30:27.564Z,91.61
2018-12-22T21:33:03.077Z,91.39
2018-12-22T21:35:36.791Z,91.23
2018-12-22T21:38:13.540Z,91.14
2018-12-22T21:40:50.122Z,91.08
2018-12-22T21:43:25.410Z,90.91
2018-12-22T21:46:01.463Z,90.54
2018-12-22T21:48:42.303Z,90.32
2018-12-22T21:51:19.132Z,90.29
2018-12-22T21:53:58.864Z,90.43
2018-12-22T21:56:37.877Z,90.49
2018-12-22T21:59:16.279Z,90.47
2018-12-22T22:01:51.816Z,90.52
2018-12-22T22:04:26.111Z,90.54
2018-12-22T22:07:06.406Z,90.64
2018-12-22T22:09:42.777Z,90.65
2018-12-22T22:12:20.842Z,90.73
2018-12-22T22:14:59.692Z,90.75
2018-12-22T22:17:37.927Z,90.78
2018-12-22T22:20:25.336Z,91.15
2018-12-22T22:23:00.838Z,91.57
2018-12-22T22:25:35.683Z,91.70
2018-12-22T22:28:09.523Z,91.67
2018-12-22T22:30:42.454Z,91.78
2018-12-22T22:33:16.452Z,91.77
2018-12-22T22:35:49.534Z,91.81
2018-12-22T22:38:23.578Z,92.01
2018-12-22T22:40:59.962Z,92.20
2018-12-22T22:43:34.277Z,92.52
2018-12-22T22:46:07.500Z,92.61
2018-12-22T22:48:44.083Z,92.78
2018-12-22T22:51:19.904Z,92.76
2018-12-22T22:53:53.932Z,92.67
2018-12-22T22:56:28.509Z,92.62
2018-12-22T22:59:02.439Z,92.70
2018-12-22T23:01:35.417Z,92.62
2018-12-22T23:04:09.086Z,92.71
2018-12-22T23:06:42.923Z,92.63
2018-12-22T23:09:19.357Z,92.70
2018-12-22T23:11:57.099Z,92.71
2018-12-22T23:14:30.181Z,92.79
2018-12-22T23:17:04.610Z,92.85
2018-12-22T23:19:39.106Z,92.85
2018-12-22T23:22:14.050Z,92.81
2018-12-22T23:24:48.644Z,92.85
2018-12-22T23:27:21.771Z,92.81
2018-12-22T23:29:56.601Z,92.90
2018-12-22T23:32:30.195Z,92.92
2018-12-22T23:35:04.964Z,92.87
2018-12-22T23:37:38.165Z,92.95
2018-12-22T23:40:12.193Z,92.92
2018-12-22T23:42:45.129Z,92.87
2018-12-22T23:45:18.214Z,92.85
2018-12-22T23:47:52.406Z,92.95
2018-12-22T23:50:25.359Z,93.06
2018-12-22T23:52:58.263Z,93.09
2018-12-22T23:55:31.728Z,93.05
2018-12-22T23:58:06.428Z,93.19
